Pierceton, Indiana
Current Conditions -  °F | °C
As of 8:35 AM on Friday 19 Dec 2014 (Local Time) from KASW Reporting Station
Haze Haze  
Wind Chill: 27°   Ceiling: 2800
Heat Index: 27°   Visibility: 5mi
Dew Point: 25°   Wind: 0mph
Humidity: 93%   Direction: NA
Pressure: 30.26"   Gusts: NA
Location:  41.2°N, 85.71°W
Report Text: KASW 191335Z AUTO 00000KT 5SM BR OVC028 M03/M04 A3026 RMK AO2
Loading
Personal Weather Stations






























Interactive Weather Map New forecast layout! Learn more

10-Day Weather Forecast

Advertisements
Track Severe Weather on mobile